createdAt,value
2023-03-06T00:00:48.653Z,99.99
2023-03-06T00:01:47.992Z,99.99
2023-03-06T00:02:47.367Z,99.99
2023-03-06T00:03:47.824Z,99.99
2023-03-06T00:04:47.665Z,99.99
2023-03-06T00:05:50.781Z,99.99
2023-03-06T00:06:50.635Z,99.99
2023-03-06T00:07:48.511Z,99.99
2023-03-06T00:08:48.886Z,99.99
2023-03-06T00:09:49.147Z,99.99
2023-03-06T00:10:49.455Z,99.99
2023-03-06T00:11:50.785Z,99.99
2023-03-06T00:12:50.109Z,99.99
2023-03-06T00:13:51.424Z,99.99
2023-03-06T00:14:52.460Z,99.99
2023-03-06T00:15:51.192Z,99.99
2023-03-06T00:16:51.185Z,99.99
2023-03-06T00:17:52.482Z,99.99
2023-03-06T00:18:53.804Z,99.99
2023-03-06T00:19:52.365Z,99.99
2023-03-06T00:20:53.629Z,99.99
2023-03-06T00:21:52.466Z,99.99
2023-03-06T00:22:52.802Z,99.99
2023-03-06T00:23:54.062Z,99.99
2023-03-06T00:24:54.365Z,99.99
2023-03-06T00:25:55.521Z,99.99
2023-03-06T00:26:53.912Z,99.99
2023-03-06T00:27:55.211Z,99.99
2023-03-06T00:28:54.310Z,99.99
2023-03-06T00:29:54.686Z,99.99
2023-03-06T00:30:55.127Z,99.99
2023-03-06T00:31:58.337Z,99.99
2023-03-06T00:32:55.791Z,99.99
2023-03-06T00:33:56.181Z,99.99
2023-03-06T00:34:58.050Z,99.99
2023-03-06T00:35:59.035Z,99.99
2023-03-06T00:36:58.335Z,99.99
2023-03-06T00:37:57.639Z,99.99
2023-03-06T00:38:59.968Z,99.99
2023-03-06T00:39:58.440Z,99.99
2023-03-06T00:40:58.800Z,99.99
2023-03-06T00:41:59.083Z,99.99
2023-03-06T00:42:59.484Z,99.99
2023-03-06T00:44:00.877Z,99.99
2023-03-06T00:45:00.190Z,99.99
2023-03-06T00:46:01.523Z,99.99
2023-03-06T00:47:00.910Z,99.99
2023-03-06T00:48:01.396Z,99.99
2023-03-06T00:49:01.690Z,99.99
2023-03-06T00:50:02.186Z,99.99
2023-03-06T00:51:03.603Z,99.99
2023-03-06T00:52:03.850Z,99.99
2023-03-06T00:53:04.134Z,99.99
2023-03-06T00:54:03.441Z,99.99
2023-03-06T00:55:06.030Z,99.99
2023-03-06T00:56:03.958Z,99.99
2023-03-06T00:57:04.063Z,99.99
2023-03-06T00:58:04.404Z,99.99
2023-03-06T00:59:04.791Z,99.99
2023-03-06T01:00:05.145Z,99.99
2023-03-06T01:01:07.489Z,99.99
2023-03-06T01:02:06.847Z,99.99
2023-03-06T01:03:08.184Z,99.99
2023-03-06T01:04:06.485Z,99.99
2023-03-06T01:05:08.261Z,99.99
2023-03-06T01:06:09.040Z,99.99
2023-03-06T01:07:07.454Z,99.99
2023-03-06T01:08:08.673Z,99.99
2023-03-06T01:09:08.128Z,99.99
2023-03-06T01:10:08.560Z,99.99
2023-03-06T01:11:08.418Z,99.99
2023-03-06T01:12:08.813Z,99.99
2023-03-06T01:13:09.223Z,99.99
2023-03-06T01:14:09.532Z,99.99
2023-03-06T01:15:09.898Z,99.99
2023-03-06T01:16:13.165Z,99.99
2023-03-06T01:17:12.468Z,99.99
2023-03-06T01:18:10.774Z,99.99
2023-03-06T01:19:11.085Z,99.99
2023-03-06T01:21:26.194Z,99.99
2023-03-06T01:22:26.096Z,99.99
2023-03-06T01:23:26.680Z,99.99
2023-03-06T01:24:28.513Z,99.99
2023-03-06T01:25:26.809Z,99.99
2023-03-06T01:26:27.114Z,99.99
2023-03-06T01:27:27.619Z,99.99
2023-03-06T01:28:27.527Z,99.99
2023-03-06T01:29:27.937Z,99.99
2023-03-06T01:30:28.196Z,99.99
2023-03-06T01:31:29.998Z,99.99
2023-03-06T01:32:30.951Z,99.99
2023-03-06T01:33:30.367Z,99.99
2023-03-06T01:34:30.014Z,99.99
2023-03-06T01:35:30.806Z,99.99
2023-03-06T01:37:30.488Z,99.99
2023-03-06T01:38:32.951Z,99.99
2023-03-06T01:39:31.122Z,99.99
2023-03-06T01:40:31.454Z,99.99
2023-03-06T01:41:31.820Z,99.99
2023-03-06T01:42:32.561Z,99.99
2023-03-06T01:43:33.162Z,99.99
2023-03-06T01:44:32.643Z,99.99
2023-03-06T01:45:32.531Z,99.99
2023-03-06T01:46:33.034Z,99.99
2023-03-06T01:47:32.947Z,99.99
2023-03-06T01:48:34.538Z,99.99
2023-03-06T01:49:34.521Z,99.99
2023-03-06T01:50:34.809Z,99.99
2023-03-06T01:51:33.616Z,99.99
2023-03-06T01:52:33.918Z,99.99
2023-03-06T01:53:34.219Z,99.99
2023-03-06T01:54:35.808Z,99.99
2023-03-06T01:55:34.839Z,99.99
2023-03-06T01:56:35.218Z,99.99
2023-03-06T01:57:35.357Z,99.99
2023-03-06T01:58:38.701Z,99.99
2023-03-06T01:59:36.471Z,99.99
2023-03-06T02:00:37.421Z,99.99
2023-03-06T02:01:38.533Z,99.99
2023-03-06T02:02:37.007Z,99.99
2023-03-06T02:03:38.430Z,99.99
2023-03-06T02:04:38.146Z,99.99
2023-03-06T02:05:39.392Z,99.99
2023-03-06T02:06:40.436Z,99.99
2023-03-06T02:07:37.938Z,99.99
2023-03-06T02:08:39.333Z,99.99
2023-03-06T02:09:38.854Z,99.99
2023-03-06T02:10:38.694Z,99.99
2023-03-06T02:11:39.086Z,99.99
2023-03-06T02:12:39.505Z,99.99
2023-03-06T02:13:43.044Z,99.99
2023-03-06T02:14:40.873Z,99.99
2023-03-06T02:15:40.129Z,99.99
2023-03-06T02:16:41.343Z,99.99
2023-03-06T02:17:40.288Z,99.99
2023-03-06T02:18:40.195Z,99.99
2023-03-06T02:19:40.551Z,99.99
2023-03-06T02:20:42.846Z,99.99
2023-03-06T02:21:41.330Z,99.99
2023-03-06T02:22:41.074Z,99.99
2023-03-06T02:23:41.394Z,99.99
2023-03-06T02:24:43.709Z,99.99
2023-03-06T02:25:42.934Z,99.99
2023-03-06T02:26:43.808Z,99.99
2023-03-06T02:27:43.658Z,99.99
2023-03-06T02:28:44.656Z,99.99
2023-03-06T02:29:43.432Z,99.99
2023-03-06T02:30:43.745Z,99.99
2023-03-06T02:31:44.566Z,99.99
2023-03-06T02:32:44.350Z,99.99
2023-03-06T02:33:44.654Z,99.99
2023-03-06T02:34:46.948Z,99.99
2023-03-06T02:35:46.344Z,99.99
2023-03-06T02:36:46.894Z,99.99
2023-03-06T02:37:46.637Z,99.99
2023-03-06T02:38:46.939Z,99.99
2023-03-06T02:39:46.826Z,99.99
2023-03-06T02:40:46.651Z,99.99
2023-03-06T02:41:48.880Z,99.99
2023-03-06T02:42:47.186Z,99.99
2023-03-06T02:43:47.614Z,99.99
2023-03-06T02:44:47.907Z,99.99
2023-03-06T02:45:48.334Z,99.99
2023-03-06T02:46:48.836Z,99.99
2023-03-06T02:47:48.614Z,99.99
2023-03-06T02:48:50.897Z,99.99
2023-03-06T02:49:50.126Z,99.99
2023-03-06T02:50:49.504Z,99.99
2023-03-06T02:51:51.897Z,99.99
2023-03-06T02:52:50.374Z,99.99
2023-03-06T02:53:51.741Z,99.99
2023-03-06T02:54:50.481Z,99.99
2023-03-06T02:55:50.893Z,99.99
2023-03-06T02:56:53.402Z,99.99
2023-03-06T02:57:51.176Z,99.99
2023-03-06T02:58:51.540Z,99.99
2023-03-06T02:59:51.896Z,99.99
2023-03-06T03:00:52.899Z,99.99
2023-03-06T03:01:52.323Z,99.99
2023-03-06T03:02:53.680Z,99.99
2023-03-06T03:03:55.086Z,99.99
2023-03-06T03:04:53.523Z,99.99
2023-03-06T03:05:55.867Z,99.99
2023-03-06T03:06:54.712Z,99.99
2023-03-06T03:07:54.087Z,99.99
2023-03-06T03:08:55.450Z,99.99
2023-03-06T03:09:54.790Z,99.99
2023-03-06T03:10:55.145Z,99.99
2023-03-06T03:11:55.464Z,99.99
2023-03-06T03:12:56.764Z,99.99
2023-03-06T03:13:56.013Z,99.99
2023-03-06T03:14:56.470Z,99.99
2023-03-06T03:15:57.976Z,99.99
2023-03-06T03:16:57.407Z,99.99
2023-03-06T03:17:56.890Z,99.99
2023-03-06T03:18:57.280Z,99.99
2023-03-06T03:19:58.507Z,99.99
2023-03-06T03:20:58.610Z,99.99
2023-03-06T03:21:57.988Z,99.99
2023-03-06T03:22:57.998Z,99.99
2023-03-06T03:23:58.283Z,99.99
2023-03-06T03:25:00.830Z,99.99
2023-03-06T03:25:59.923Z,99.99
2023-03-06T03:26:59.140Z,99.99
2023-03-06T03:27:59.281Z,99.99
2023-03-06T03:28:59.097Z,99.99
2023-03-06T03:29:59.469Z,99.99
2023-03-06T03:31:00.803Z,99.99
2023-03-06T03:32:00.228Z,99.99
2023-03-06T03:33:00.574Z,99.99
2023-03-06T03:34:01.784Z,99.99
2023-03-06T03:35:01.996Z,99.99
2023-03-06T03:36:02.600Z,99.99
2023-03-06T03:37:01.472Z,99.99
2023-03-06T03:38:03.344Z,99.99
2023-03-06T03:39:02.178Z,99.99
2023-03-06T03:40:03.480Z,99.99
2023-03-06T03:41:02.886Z,99.99
2023-03-06T03:42:06.000Z,99.99
2023-03-06T03:43:03.475Z,99.99
2023-03-06T03:44:03.552Z,99.99
2023-03-06T03:45:04.337Z,99.99
2023-03-06T03:46:04.655Z,99.99
2023-03-06T03:47:06.626Z,99.99
2023-03-06T03:48:04.919Z,99.99
2023-03-06T03:49:04.766Z,99.99
2023-03-06T03:50:05.413Z,99.99
2023-03-06T03:51:05.037Z,99.99
2023-03-06T03:52:05.746Z,99.99
2023-03-06T03:53:05.864Z,99.99
2023-03-06T03:54:06.091Z,99.99
2023-03-06T03:55:06.186Z,99.99
2023-03-06T03:56:06.351Z,99.99
2023-03-06T03:57:06.221Z,99.99
2023-03-06T03:58:07.095Z,99.99
2023-03-06T03:59:06.506Z,99.99
2023-03-06T04:00:07.620Z,99.99
2023-03-06T04:01:07.649Z,99.99
2023-03-06T04:02:08.731Z,99.99
2023-03-06T04:03:08.245Z,99.99
2023-03-06T04:04:07.820Z,99.99
2023-03-06T04:05:09.253Z,99.99
2023-03-06T04:06:08.321Z,99.99
2023-03-06T04:07:08.288Z,99.99
2023-03-06T04:08:07.807Z,99.99
2023-03-06T04:09:10.806Z,99.99
2023-03-06T04:10:08.662Z,99.99
2023-03-06T04:11:08.771Z,99.99
2023-03-06T04:12:09.351Z,99.99
2023-03-06T04:13:10.174Z,99.99
2023-03-06T04:14:09.568Z,99.99
2023-03-06T04:15:09.662Z,99.99
2023-03-06T04:16:09.949Z,99.99
2023-03-06T04:17:09.976Z,99.99
2023-03-06T04:18:10.529Z,99.99
2023-03-06T04:19:10.044Z,99.99
2023-03-06T04:20:11.350Z,99.99
2023-03-06T04:21:10.799Z,99.99
2023-03-06T04:22:11.499Z,99.99
2023-03-06T04:23:11.479Z,99.99
2023-03-06T04:24:11.561Z,99.99
2023-03-06T04:25:11.494Z,99.99
2023-03-06T04:26:12.410Z,99.99
2023-03-06T04:27:12.792Z,99.99
2023-03-06T04:28:13.463Z,99.99
2023-03-06T04:29:14.229Z,99.99
2023-03-06T04:30:12.619Z,99.99
2023-03-06T04:31:14.134Z,99.99
2023-03-06T04:32:13.153Z,99.99
2023-03-06T04:33:13.271Z,99.99
2023-03-06T04:34:15.152Z,99.99
2023-03-06T04:35:14.453Z,99.99
2023-03-06T04:36:15.731Z,99.99
2023-03-06T04:37:14.085Z,99.99
2023-03-06T04:38:16.354Z,99.99
2023-03-06T04:39:14.944Z,99.99
2023-03-06T04:40:14.799Z,99.99
2023-03-06T04:41:16.116Z,99.99
2023-03-06T04:42:15.403Z,99.99
2023-03-06T04:43:15.642Z,99.99
2023-03-06T04:44:16.966Z,99.99
2023-03-06T04:45:16.317Z,99.99
2023-03-06T04:46:17.009Z,99.99
2023-03-06T04:47:19.045Z,99.99
2023-03-06T04:48:17.971Z,99.99
2023-03-06T04:49:18.284Z,99.99
2023-03-06T04:50:18.645Z,99.99
2023-03-06T04:51:19.068Z,99.99
2023-03-06T04:52:20.510Z,99.99
2023-03-06T04:53:18.981Z,99.99
2023-03-06T04:54:19.209Z,99.99
2023-03-06T04:55:21.090Z,99.99
2023-03-06T04:56:20.342Z,99.99
2023-03-06T04:57:19.801Z,99.99
2023-03-06T04:58:20.753Z,99.99
2023-03-06T04:59:22.134Z,99.99
2023-03-06T05:00:20.962Z,99.99
2023-03-06T05:01:20.805Z,99.99
2023-03-06T05:02:22.155Z,99.99
2023-03-06T05:03:22.595Z,99.99
2023-03-06T05:04:22.046Z,99.99
2023-03-06T05:05:23.826Z,99.99
2023-03-06T05:06:24.125Z,99.99
2023-03-06T05:07:22.453Z,99.99
2023-03-06T05:08:25.347Z,99.99
2023-03-06T05:09:25.077Z,99.99
2023-03-06T05:10:26.294Z,99.99
2023-03-06T05:11:24.555Z,99.99
2023-03-06T05:12:25.950Z,99.99
2023-03-06T05:13:25.226Z,99.99
2023-03-06T05:14:24.618Z,99.99
2023-03-06T05:15:25.898Z,99.99
2023-03-06T05:16:25.262Z,99.99
2023-03-06T05:17:27.552Z,99.99
2023-03-06T05:18:27.422Z,99.99
2023-03-06T05:19:28.213Z,99.99
2023-03-06T05:20:26.589Z,99.99
2023-03-06T05:21:26.975Z,99.99
2023-03-06T05:22:27.352Z,99.99
2023-03-06T05:23:27.713Z,99.99
2023-03-06T05:24:29.218Z,99.99
2023-03-06T05:25:29.040Z,99.99
2023-03-06T05:26:29.836Z,99.99
2023-03-06T05:27:28.818Z,99.99
2023-03-06T05:28:29.142Z,99.99
2023-03-06T05:29:29.595Z,99.99
2023-03-06T05:30:30.461Z,99.99
2023-03-06T05:31:29.972Z,99.99
2023-03-06T05:32:30.852Z,99.99
2023-03-06T05:33:30.210Z,99.99
2023-03-06T05:34:30.617Z,99.99
2023-03-06T05:35:31.014Z,99.99
2023-03-06T05:36:39.932Z,99.99
2023-03-06T05:37:31.551Z,99.99
2023-03-06T05:38:32.842Z,99.99
2023-03-06T05:39:31.789Z,99.99
2023-03-06T05:40:32.390Z,99.99
2023-03-06T05:41:32.302Z,99.99
2023-03-06T05:42:33.662Z,99.99
2023-03-06T05:43:33.138Z,99.99
2023-03-06T05:44:33.926Z,99.99
2023-03-06T05:45:33.424Z,99.99
2023-03-06T05:46:33.312Z,99.99
2023-03-06T05:47:33.682Z,99.99
2023-03-06T05:48:36.068Z,99.99
2023-03-06T05:49:34.399Z,99.99
2023-03-06T05:50:34.733Z,99.99
2023-03-06T05:51:34.778Z,99.99
2023-03-06T05:52:35.080Z,99.99
2023-03-06T05:53:37.749Z,99.99
2023-03-06T05:54:36.542Z,99.99
2023-03-06T05:55:37.778Z,99.99
2023-03-06T05:56:36.574Z,99.99
2023-03-06T05:57:38.945Z,99.99
2023-03-06T05:58:38.061Z,99.99
2023-03-06T05:59:36.542Z,99.99
2023-03-06T06:00:36.946Z,99.99
2023-03-06T06:01:39.573Z,99.99
2023-03-06T06:02:37.528Z,99.99
2023-03-06T06:03:38.859Z,99.99
2023-03-06T06:04:38.360Z,99.99
2023-03-06T06:05:39.827Z,99.99
2023-03-06T06:06:45.203Z,99.99
2023-03-06T06:07:39.132Z,99.99
2023-03-06T06:08:40.648Z,99.99
2023-03-06T06:09:40.708Z,99.99
2023-03-06T06:10:39.682Z,99.99
2023-03-06T06:11:39.979Z,99.99
2023-03-06T06:12:39.931Z,99.99
2023-03-06T06:13:41.423Z,99.99
2023-03-06T06:14:40.394Z,99.99
2023-03-06T06:15:40.646Z,99.99
2023-03-06T06:16:40.473Z,99.99
2023-03-06T06:17:41.930Z,99.99
2023-03-06T06:18:41.504Z,99.99
2023-03-06T06:19:41.037Z,99.99
2023-03-06T06:20:41.525Z,99.99
2023-03-06T06:21:43.732Z,99.99
2023-03-06T06:22:43.192Z,99.99
2023-03-06T06:23:45.268Z,99.99
2023-03-06T06:24:42.818Z,99.99
2023-03-06T06:25:45.229Z,99.99
2023-03-06T06:26:46.461Z,99.99
2023-03-06T06:27:45.073Z,99.99
2023-03-06T06:28:44.999Z,99.99
2023-03-06T06:29:44.744Z,99.99
2023-03-06T06:33:01.780Z,99.99
2023-03-06T06:33:46.342Z,99.99
2023-03-06T06:34:46.605Z,99.99
2023-03-06T06:35:47.014Z,99.99
2023-03-06T06:36:48.320Z,99.99
2023-03-06T06:37:51.203Z,99.99
2023-03-06T06:39:47.130Z,99.99
2023-03-06T06:41:33.001Z,99.90
2023-03-06T06:42:38.934Z,99.99
2023-03-06T06:43:20.554Z,99.99
2023-03-06T06:44:20.153Z,99.79
2023-03-06T06:45:06.486Z,98.96
2023-03-06T06:46:38.873Z,98.85
2023-03-06T06:47:25.347Z,98.75
2023-03-06T06:48:06.914Z,98.54
2023-03-06T06:49:07.780Z,98.44
2023-03-06T06:50:09.433Z,98.23
2023-03-06T06:51:11.433Z,98.44
2023-03-06T06:52:09.191Z,98.60
2023-03-06T06:53:09.844Z,98.91
2023-03-06T06:54:11.141Z,99.12
2023-03-06T06:55:09.747Z,99.33
2023-03-06T06:56:12.810Z,98.91
2023-03-06T06:57:12.994Z,98.44
2023-03-06T06:58:10.541Z,98.33
2023-03-06T06:59:16.638Z,98.44
2023-03-06T07:00:09.663Z,98.44
2023-03-06T07:01:10.167Z,98.65
2023-03-06T07:02:10.838Z,98.65
2023-03-06T07:03:10.661Z,98.75
2023-03-06T07:04:11.886Z,98.65
2023-03-06T07:05:11.590Z,98.44
2023-03-06T07:06:17.125Z,98.23
2023-03-06T07:07:18.447Z,98.08
2023-03-06T07:08:10.839Z,98.29
2023-03-06T07:09:11.113Z,98.29
2023-03-06T07:10:12.642Z,98.08
2023-03-06T07:11:12.102Z,98.19
2023-03-06T07:12:12.653Z,97.98
2023-03-06T07:13:11.653Z,97.77
2023-03-06T07:14:14.659Z,97.35
2023-03-06T07:15:19.729Z,97.00
2023-03-06T07:16:14.246Z,96.62
2023-03-06T07:17:16.324Z,96.31
2023-03-06T07:18:14.866Z,96.11
2023-03-06T07:20:14.441Z,96.11
2023-03-06T07:21:20.695Z,96.11
2023-03-06T07:22:17.616Z,96.21
2023-03-06T07:23:25.415Z,96.00
2023-03-06T07:24:22.705Z,96.00
2023-03-06T07:25:16.623Z,95.90
2023-03-06T07:26:16.495Z,95.69
2023-03-06T07:27:24.418Z,95.48
2023-03-06T07:28:18.537Z,95.69
2023-03-06T07:30:19.852Z,95.38
2023-03-06T07:32:27.146Z,95.07
2023-03-06T07:33:21.379Z,94.96
2023-03-06T07:34:22.779Z,95.34
2023-03-06T07:35:21.418Z,95.13
2023-03-06T07:36:31.709Z,95.34
2023-03-06T07:37:24.727Z,94.09
2023-03-06T07:38:21.039Z,93.99
2023-03-06T07:39:20.486Z,93.88
2023-03-06T07:40:20.242Z,94.09
2023-03-06T07:41:22.367Z,94.51
2023-03-06T07:42:21.503Z,94.20
2023-03-06T07:43:21.467Z,93.78
2023-03-06T07:44:22.454Z,94.20
2023-03-06T07:45:20.673Z,94.51
2023-03-06T07:46:23.668Z,93.63
2023-03-06T07:47:20.798Z,93.22
2023-03-06T07:48:23.153Z,92.90
2023-03-06T07:49:21.502Z,92.69
2023-03-06T07:50:24.888Z,92.69
2023-03-06T07:51:26.615Z,92.18
2023-03-06T07:52:25.466Z,91.86
2023-03-06T07:53:25.342Z,91.66
2023-03-06T07:54:23.057Z,90.93
2023-03-06T07:55:29.471Z,90.10
2023-03-06T07:57:23.371Z,90.31
2023-03-06T07:58:22.620Z,89.86
2023-03-06T08:00:26.457Z,89.86
2023-03-06T08:01:29.068Z,89.96
2023-03-06T08:02:29.633Z,89.23
2023-03-06T08:03:25.847Z,89.13
2023-03-06T08:04:25.317Z,88.30
2023-03-06T08:05:30.174Z,88.71
2023-03-06T08:06:48.570Z,88.44
2023-03-06T08:07:37.004Z,89.27
2023-03-06T08:08:47.156Z,89.06
2023-03-06T08:09:37.351Z,88.75
2023-03-06T08:11:31.430Z,88.65
2023-03-06T08:14:01.132Z,89.27
2023-03-06T08:14:49.620Z,89.03
2023-03-06T08:17:38.779Z,88.30
2023-03-06T08:18:33.639Z,87.47
2023-03-06T08:19:51.834Z,87.26
2023-03-06T08:20:28.644Z,87.47
2023-03-06T08:21:40.907Z,87.88
2023-03-06T08:22:43.522Z,88.30
2023-03-06T08:23:31.321Z,87.57
2023-03-06T08:24:28.281Z,87.88
2023-03-06T08:25:55.143Z,87.37
2023-03-06T08:26:32.870Z,87.57
2023-03-06T08:27:31.975Z,87.37
2023-03-06T08:29:49.603Z,87.16
2023-03-06T08:30:41.594Z,86.85
2023-03-06T08:31:40.219Z,86.85
2023-03-06T08:33:43.062Z,87.09
2023-03-06T08:34:34.366Z,86.99
2023-03-06T08:35:47.408Z,88.44
2023-03-06T08:36:31.618Z,88.82
2023-03-06T08:37:35.269Z,87.92
2023-03-06T08:38:43.316Z,87.09
2023-03-06T08:39:32.052Z,86.99
2023-03-06T08:40:31.131Z,86.99
2023-03-06T08:41:37.095Z,87.82
2023-03-06T08:42:34.511Z,87.61
2023-03-06T08:43:41.440Z,87.51
2023-03-06T08:44:36.882Z,87.82
2023-03-06T08:45:35.186Z,87.26
2023-03-06T08:47:01.709Z,86.33
2023-03-06T08:48:00.464Z,85.81
2023-03-06T08:48:59.843Z,86.12
2023-03-06T08:50:03.504Z,85.50
2023-03-06T08:51:01.643Z,85.91
2023-03-06T08:52:03.132Z,86.54
2023-03-06T08:53:03.557Z,85.39
2023-03-06T08:54:05.651Z,86.68
2023-03-06T08:55:05.301Z,86.05
2023-03-06T08:56:04.387Z,85.95
2023-03-06T08:57:04.954Z,87.19
2023-03-06T08:58:34.356Z,86.47
2023-03-06T08:59:37.572Z,86.26
2023-03-06T09:00:36.069Z,86.12
2023-03-06T09:01:36.110Z,85.60
2023-03-06T09:02:36.835Z,85.91
2023-03-06T09:03:46.477Z,85.19
2023-03-06T09:04:38.573Z,85.29
2023-03-06T09:05:38.742Z,85.19
2023-03-06T09:07:43.158Z,86.47
2023-03-06T09:09:41.011Z,86.16
2023-03-06T09:13:54.167Z,86.82
2023-03-06T09:14:38.253Z,87.34
2023-03-06T09:20:43.988Z,87.65
2023-03-06T09:21:53.617Z,87.76
2023-03-06T09:22:41.123Z,87.65
2023-03-06T09:23:41.064Z,88.28
2023-03-06T09:24:48.125Z,88.13
2023-03-06T09:25:40.574Z,88.13
2023-03-06T09:26:46.664Z,88.13
2023-03-06T09:28:36.973Z,88.75
2023-03-06T09:29:01.150Z,88.44
2023-03-06T09:30:03.543Z,88.02
2023-03-06T09:30:59.241Z,88.23
2023-03-06T09:33:20.849Z,88.85
2023-03-06T09:34:57.307Z,88.96
2023-03-06T09:36:03.146Z,89.06
2023-03-06T09:37:58.074Z,89.48
2023-03-06T09:39:00.906Z,89.23
2023-03-06T09:40:00.203Z,89.89
2023-03-06T09:41:03.913Z,90.00
2023-03-06T09:41:59.522Z,89.37
2023-03-06T09:43:02.833Z,90.83
2023-03-06T09:43:59.302Z,91.03
2023-03-06T09:45:26.328Z,90.93
2023-03-06T09:46:14.010Z,92.07
2023-03-06T09:47:04.478Z,91.83
2023-03-06T09:47:59.915Z,91.41
2023-03-06T09:48:58.824Z,91.31
2023-03-06T09:50:04.149Z,91.41
2023-03-06T09:50:59.729Z,92.24
2023-03-06T09:52:00.403Z,93.07
2023-03-06T09:53:14.370Z,93.44
2023-03-06T09:54:03.610Z,91.89
2023-03-06T09:55:01.389Z,92.10
2023-03-06T09:56:02.106Z,93.02
2023-03-06T09:57:02.361Z,92.26
2023-03-06T09:58:04.999Z,91.64
2023-03-06T09:59:12.154Z,90.70
2023-03-06T10:00:06.892Z,90.91
2023-03-06T10:01:02.427Z,90.66
2023-03-06T10:03:10.521Z,90.56
2023-03-06T10:04:25.126Z,90.45
2023-03-06T10:06:11.100Z,89.94
2023-03-06T10:07:23.212Z,89.83
2023-03-06T10:08:08.161Z,89.62
2023-03-06T10:09:04.614Z,90.04
2023-03-06T10:10:05.348Z,89.73
2023-03-06T10:11:05.817Z,87.97
2023-03-06T10:12:04.855Z,88.18
2023-03-06T10:13:05.624Z,89.00
2023-03-06T10:14:10.940Z,89.11
2023-03-06T10:15:08.672Z,88.69
2023-03-06T10:16:08.394Z,88.53
2023-03-06T10:20:11.476Z,90.39
2023-03-06T10:21:19.134Z,90.08
2023-03-06T10:22:14.771Z,90.29
2023-03-06T10:37:16.411Z,90.06
2023-03-06T10:38:11.177Z,90.06
2023-03-06T10:39:13.377Z,90.37
2023-03-06T10:40:14.474Z,90.48
2023-03-06T10:41:22.240Z,90.37
2023-03-06T10:42:20.872Z,90.27
2023-03-06T10:43:13.254Z,90.89
2023-03-06T10:44:26.130Z,91.10
2023-03-06T10:45:16.652Z,91.06
2023-03-06T10:46:12.605Z,90.85
2023-03-06T10:47:14.778Z,90.54
2023-03-06T10:48:22.311Z,89.81
2023-03-06T10:49:14.242Z,88.88
2023-03-06T10:50:20.845Z,89.65
2023-03-06T10:51:18.740Z,89.65
2023-03-06T10:52:17.970Z,89.34
2023-03-06T10:55:42.036Z,89.13
2023-03-06T10:56:18.884Z,89.13
2023-03-06T10:59:17.963Z,88.88
2023-03-06T11:00:21.925Z,88.88
2023-03-06T11:01:18.187Z,89.29
2023-03-06T11:02:20.584Z,88.57
2023-03-06T11:03:30.831Z,89.61
2023-03-06T11:05:38.314Z,91.31
2023-03-06T11:06:35.464Z,91.93
2023-03-06T11:09:25.625Z,93.32
2023-03-06T11:10:26.472Z,92.84
2023-03-06T11:12:36.065Z,93.84
2023-03-06T11:15:29.110Z,92.28
2023-03-06T11:17:34.921Z,92.24
2023-03-06T11:19:25.273Z,91.41
2023-03-06T11:20:50.146Z,92.45
2023-03-06T11:21:45.657Z,91.31
2023-03-06T11:24:22.631Z,91.58
2023-03-06T11:27:09.343Z,91.37
2023-03-06T11:28:04.630Z,91.89
2023-03-06T11:29:12.215Z,92.03
2023-03-06T11:31:06.203Z,92.30
2023-03-06T11:32:27.257Z,92.20
2023-03-06T11:33:18.113Z,93.13
2023-03-06T11:34:15.717Z,92.61
2023-03-06T11:35:12.326Z,92.10
2023-03-06T11:36:07.141Z,91.89
2023-03-06T11:39:15.498Z,91.99
2023-03-06T11:40:07.885Z,92.30
2023-03-06T11:41:21.566Z,92.72
2023-03-06T11:42:12.081Z,92.41
2023-03-06T11:44:10.743Z,92.20
2023-03-06T11:45:18.855Z,92.41
2023-03-06T11:46:13.734Z,92.20
2023-03-06T11:47:10.111Z,93.02
2023-03-06T11:48:08.976Z,92.10
2023-03-06T11:49:11.648Z,92.72
2023-03-06T11:50:13.282Z,92.61
2023-03-06T11:51:25.575Z,93.33
2023-03-06T11:52:21.394Z,93.90
2023-03-06T11:53:31.306Z,95.20
2023-03-06T11:56:22.010Z,96.08
2023-03-06T11:57:27.962Z,95.98
2023-03-06T11:58:20.570Z,95.77
2023-03-06T11:59:12.215Z,96.19
2023-03-06T12:00:13.718Z,97.53
2023-03-06T12:01:14.501Z,97.64
2023-03-06T12:02:14.852Z,96.29
2023-03-06T12:03:12.658Z,96.45
2023-03-06T12:04:12.737Z,96.34
2023-03-06T12:05:12.581Z,95.93
2023-03-06T12:06:16.116Z,97.90
2023-03-06T12:07:12.910Z,97.17
2023-03-06T12:08:14.285Z,96.34
2023-03-06T12:09:14.846Z,95.10
2023-03-06T12:10:21.175Z,95.41
2023-03-06T12:11:12.972Z,95.62
2023-03-06T12:13:13.478Z,95.25
2023-03-06T12:14:14.478Z,96.03
2023-03-06T12:15:13.501Z,96.14
2023-03-06T12:16:17.317Z,96.45
2023-03-06T12:17:16.639Z,96.34
2023-03-06T12:18:15.469Z,95.83
2023-03-06T12:19:15.442Z,95.31
2023-03-06T12:20:19.312Z,94.68
2023-03-06T12:21:17.911Z,95.51
2023-03-06T12:22:49.508Z,96.34
2023-03-06T12:23:17.431Z,95.62
2023-03-06T12:24:20.415Z,94.68
2023-03-06T12:25:34.969Z,95.46
2023-03-06T12:26:20.338Z,95.25
2023-03-06T12:27:26.652Z,95.77
2023-03-06T12:28:37.437Z,95.87
2023-03-06T12:29:25.831Z,95.71
2023-03-06T12:30:20.112Z,96.02
2023-03-06T12:31:21.859Z,95.71
2023-03-06T12:32:21.040Z,96.17
2023-03-06T12:33:18.632Z,96.73
2023-03-06T12:34:19.879Z,96.83
2023-03-06T12:35:21.714Z,97.25
2023-03-06T12:36:20.930Z,97.81
2023-03-06T12:37:20.812Z,98.33
2023-03-06T12:38:22.314Z,98.80
2023-03-06T12:39:19.609Z,99.15
2023-03-06T12:40:23.835Z,99.88
2023-03-06T12:41:23.131Z,99.99
2023-03-06T12:42:28.472Z,99.99
2023-03-06T12:43:21.012Z,99.99
2023-03-06T12:44:28.864Z,99.99
2023-03-06T12:46:28.362Z,99.99
2023-03-06T12:47:25.292Z,99.99
2023-03-06T12:48:25.233Z,99.99
2023-03-06T12:49:34.041Z,99.99
2023-03-06T12:50:31.796Z,99.99
2023-03-06T12:51:28.502Z,99.99
2023-03-06T12:52:38.613Z,99.99
2023-03-06T12:53:28.376Z,99.99
2023-03-06T12:55:28.742Z,99.99
2023-03-06T12:56:41.781Z,99.99
2023-03-06T12:57:32.026Z,99.99
2023-03-06T12:58:28.256Z,99.99
2023-03-06T12:59:24.360Z,99.99
2023-03-06T13:00:24.053Z,96.37
2023-03-06T13:01:25.833Z,94.45
2023-03-06T13:02:28.790Z,96.26
2023-03-06T13:03:30.454Z,98.49
2023-03-06T13:04:33.034Z,97.25
2023-03-06T13:05:36.345Z,96.67
2023-03-06T13:07:32.111Z,94.91
2023-03-06T13:09:31.423Z,94.33
2023-03-06T13:11:26.583Z,96.42
2023-03-06T13:13:01.277Z,93.58
2023-03-06T13:13:33.941Z,92.34
2023-03-06T13:14:48.798Z,90.78
2023-03-06T13:15:28.774Z,90.68
2023-03-06T13:16:35.485Z,91.72
2023-03-06T13:17:29.478Z,93.68
2023-03-06T13:20:47.231Z,89.44
2023-03-06T13:22:34.162Z,90.02
2023-03-06T13:23:37.091Z,87.95
2023-03-06T13:24:31.606Z,88.16
2023-03-06T13:25:34.817Z,88.32
2023-03-06T13:26:38.699Z,88.16
2023-03-06T13:28:33.926Z,88.28
2023-03-06T13:29:33.932Z,88.34
2023-03-06T13:30:31.825Z,87.37
2023-03-06T13:31:41.886Z,84.31
2023-03-06T13:32:34.243Z,84.73
2023-03-06T13:33:35.249Z,84.36
2023-03-06T13:34:32.329Z,84.31
2023-03-06T13:35:33.680Z,84.59
2023-03-06T13:36:35.496Z,82.62
2023-03-06T13:37:35.117Z,80.87
2023-03-06T13:38:32.507Z,83.78
2023-03-06T13:39:35.751Z,82.57
2023-03-06T13:40:34.424Z,79.34
2023-03-06T13:41:38.472Z,77.90
2023-03-06T13:42:36.452Z,76.63
2023-03-06T13:43:44.432Z,75.22
2023-03-06T13:44:37.655Z,74.22
2023-03-06T13:45:37.355Z,74.43
2023-03-06T13:46:48.538Z,74.43
2023-03-06T13:47:59.034Z,74.57
2023-03-06T13:49:39.536Z,80.11
2023-03-06T13:50:37.451Z,82.45
2023-03-06T13:51:37.520Z,83.06
2023-03-06T13:52:43.347Z,84.51
2023-03-06T13:53:37.427Z,84.09
2023-03-06T13:55:55.253Z,83.62
2023-03-06T13:56:15.648Z,82.25
2023-03-06T13:57:15.204Z,84.15
2023-03-06T13:58:14.351Z,85.42
2023-03-06T13:59:14.359Z,85.16
2023-03-06T14:00:14.769Z,85.92
2023-03-06T14:01:14.968Z,87.72
2023-03-06T14:02:14.545Z,88.59
2023-03-06T14:03:14.949Z,88.90
2023-03-06T14:04:14.938Z,89.04
2023-03-06T14:05:21.514Z,89.77
2023-03-06T14:06:16.916Z,90.23
2023-03-06T14:07:16.371Z,91.16
2023-03-06T14:08:15.999Z,92.30
2023-03-06T14:09:16.158Z,92.82
2023-03-06T14:10:16.499Z,92.97
2023-03-06T14:11:16.340Z,93.38
2023-03-06T14:12:17.137Z,93.80
2023-03-06T14:13:17.234Z,94.88
2023-03-06T14:14:16.254Z,95.40
2023-03-06T14:15:16.534Z,95.40
2023-03-06T14:16:17.562Z,95.09
2023-03-06T14:17:16.733Z,94.92
2023-03-06T14:18:17.272Z,94.71
2023-03-06T14:19:17.970Z,95.07